Time;durP1;ratioP1;P1;durP2;ratioP2;P2;SDS_P1;SDS_P2;PMS_P1;PMS_P2;Temp;Humidity;BMP_temperature;BMP_pressure;BME280_temperature;BME280_humidity;BME280_pressure;Samples;Min_cycle;Max_cycle;Signal;HPM_P1;HPM_P2
2022/08/28 00:00:29;;;;;;;4.63;3.28;;;;;;;;;;4937027;28;20086;-76
2022/08/28 00:02:56;;;;;;;4.88;3.33;;;;;;;;;;4943158;28;20502;-77
2022/08/28 00:05:23;;;;;;;7.53;4.18;;;;;;;;;;4948757;28;20020;-79
2022/08/28 00:07:50;;;;;;;5.65;3.63;;;;;;;;;;4942798;28;20074;-79
2022/08/28 00:10:17;;;;;;;7.88;4.50;;;;;;;;;;4953873;28;20022;-79
2022/08/28 00:12:44;;;;;;;5.88;4.60;;;;;;;;;;4972669;28;20114;-76
2022/08/28 00:15:11;;;;;;;4.25;3.78;;;;;;;;;;4945316;28;20047;-78
2022/08/28 00:17:38;;;;;;;4.82;4.13;;;;;;;;;;4945527;28;20483;-79
2022/08/28 00:20:07;;;;;;;5.25;3.28;;;;;;;;;;4947735;28;20031;-77
2022/08/28 00:22:33;;;;;;;4.57;2.95;;;;;;;;;;4942353;28;20441;-79
2022/08/28 00:25:00;;;;;;;3.60;2.15;;;;;;;;;;4945260;28;20632;-79
2022/08/28 00:30:11;;;;;;;2.50;2.30;;;;;;;;;;4947716;28;20450;-78
2022/08/28 00:32:37;;;;;;;3.63;2.22;;;;;;;;;;4945926;28;20023;-78
2022/08/28 00:35:03;;;;;;;4.30;2.47;;;;;;;;;;4941170;28;20032;-79
2022/08/28 00:37:29;;;;;;;4.07;2.25;;;;;;;;;;4946583;28;20054;-78
2022/08/28 00:39:55;;;;;;;4.13;2.63;;;;;;;;;;4944874;28;20035;-79
2022/08/28 00:42:21;;;;;;;3.85;2.40;;;;;;;;;;4945836;28;20106;-78
2022/08/28 00:44:48;;;;;;;2.95;2.15;;;;;;;;;;4940129;28;20027;-78
2022/08/28 00:47:14;;;;;;;4.05;2.20;;;;;;;;;;4946372;28;21347;-78
2022/08/28 00:49:45;;;;;;;4.38;2.42;;;;;;;;;;4951485;28;20384;-79
2022/08/28 00:52:14;;;;;;;3.95;2.00;;;;;;;;;;4950747;28;20075;-79
2022/08/28 00:54:47;;;;;;;6.28;2.40;;;;;;;;;;4949105;28;20035;-78
2022/08/28 00:57:15;;;;;;;6.32;2.78;;;;;;;;;;4940347;28;20131;-78
2022/08/28 00:59:41;;;;;;;3.28;2.42;;;;;;;;;;4945706;28;20400;-78
2022/08/28 01:02:07;;;;;;;3.97;2.30;;;;;;;;;;4937027;28;20059;-78
2022/08/28 01:04:34;;;;;;;3.92;2.13;;;;;;;;;;4945306;28;20114;-78
2022/08/28 01:07:02;;;;;;;4.22;2.30;;;;;;;;;;4947766;28;20118;-77
2022/08/28 01:09:30;;;;;;;4.47;2.30;;;;;;;;;;4944931;28;20027;-79
2022/08/28 01:12:00;;;;;;;3.35;2.38;;;;;;;;;;4942272;28;20024;-78
2022/08/28 01:14:28;;;;;;;3.00;2.00;;;;;;;;;;4946884;28;20043;-78
2022/08/28 01:16:55;;;;;;;4.82;2.40;;;;;;;;;;4942901;28;20024;-78
2022/08/28 01:19:26;;;;;;;2.58;2.10;;;;;;;;;;4940329;28;20453;-78
2022/08/28 01:22:03;;;;;;;3.63;2.25;;;;;;;;;;4947757;28;20063;-79
2022/08/28 01:24:30;;;;;;;4.75;2.30;;;;;;;;;;4943841;28;20099;-78
2022/08/28 01:26:57;;;;;;;3.58;2.58;;;;;;;;;;4936503;28;20027;-79
2022/08/28 01:29:23;;;;;;;4.22;2.20;;;;;;;;;;4944990;28;20023;-78
2022/08/28 01:31:49;;;;;;;3.67;2.47;;;;;;;;;;4942875;28;20094;-78
2022/08/28 01:34:15;;;;;;;2.65;2.38;;;;;;;;;;4938224;28;20090;-78
2022/08/28 01:36:41;;;;;;;3.35;2.50;;;;;;;;;;4945757;28;20027;-78
2022/08/28 01:39:18;;;;;;;5.40;2.60;;;;;;;;;;4938381;28;20031;-78
2022/08/28 01:41:46;;;;;;;3.25;2.40;;;;;;;;;;4942734;28;20055;-77
2022/08/28 01:44:13;;;;;;;2.92;2.30;;;;;;;;;;4942942;28;20731;-78
2022/08/28 01:46:41;;;;;;;5.15;2.50;;;;;;;;;;4946855;28;20023;-78
2022/08/28 01:49:08;;;;;;;4.38;3.10;;;;;;;;;;4942675;28;20111;-79
2022/08/28 01:51:35;;;;;;;4.25;2.78;;;;;;;;;;4943416;28;20453;-78
2022/08/28 01:54:01;;;;;;;5.45;3.05;;;;;;;;;;4940493;28;20036;-78
2022/08/28 01:56:27;;;;;;;4.15;2.78;;;;;;;;;;4951554;28;20035;-78
2022/08/28 01:58:54;;;;;;;4.55;3.05;;;;;;;;;;4951186;28;20035;-77
2022/08/28 02:01:20;;;;;;;4.68;2.92;;;;;;;;;;4940229;28;20070;-79
2022/08/28 02:03:47;;;;;;;5.28;2.95;;;;;;;;;;4939173;28;20074;-78
2022/08/28 02:06:14;;;;;;;2.80;2.53;;;;;;;;;;4940981;28;20040;-79
2022/08/28 02:08:40;;;;;;;2.80;2.50;;;;;;;;;;4942207;28;20058;-78
2022/08/28 02:11:07;;;;;;;4.40;2.80;;;;;;;;;;4939953;28;20446;-79
2022/08/28 02:13:35;;;;;;;4.38;2.70;;;;;;;;;;4942329;28;20078;-79
2022/08/28 02:16:02;;;;;;;4.30;2.85;;;;;;;;;;4946571;28;20031;-78
2022/08/28 02:18:28;;;;;;;3.70;2.80;;;;;;;;;;4948369;28;20035;-79
2022/08/28 02:20:54;;;;;;;8.07;3.63;;;;;;;;;;4953667;28;20027;-79
2022/08/28 02:23:21;;;;;;;4.72;3.22;;;;;;;;;;4937901;28;20031;-79
2022/08/28 02:25:47;;;;;;;3.90;2.83;;;;;;;;;;4943103;28;20368;-79
2022/08/28 02:28:13;;;;;;;3.75;3.00;;;;;;;;;;4938509;28;20550;-79
2022/08/28 02:30:39;;;;;;;4.00;2.92;;;;;;;;;;4948638;28;20321;-79
2022/08/28 02:33:05;;;;;;;5.30;2.75;;;;;;;;;;4949801;28;20023;-78
2022/08/28 02:35:32;;;;;;;4.78;3.35;;;;;;;;;;4948487;28;20512;-78
2022/08/28 02:37:58;;;;;;;6.07;2.95;;;;;;;;;;4945842;28;20825;-79
2022/08/28 02:40:24;;;;;;;4.90;3.05;;;;;;;;;;4958740;28;20042;-78
2022/08/28 02:42:51;;;;;;;4.00;2.80;;;;;;;;;;4947880;28;20146;-78
2022/08/28 02:45:17;;;;;;;5.65;2.80;;;;;;;;;;4944457;28;20067;-79
2022/08/28 02:47:44;;;;;;;5.32;2.60;;;;;;;;;;4939493;28;20122;-78
2022/08/28 02:50:12;;;;;;;4.07;3.00;;;;;;;;;;4946334;28;20071;-79
2022/08/28 02:52:38;;;;;;;5.88;2.88;;;;;;;;;;4947819;28;20027;-78
2022/08/28 02:55:05;;;;;;;4.80;2.83;;;;;;;;;;4944427;28;20028;-78
2022/08/28 02:57:31;;;;;;;6.05;3.20;;;;;;;;;;4947683;28;20114;-78
2022/08/28 02:59:58;;;;;;;4.55;2.80;;;;;;;;;;4950149;28;20386;-79
2022/08/28 03:02:25;;;;;;;3.70;2.90;;;;;;;;;;4946169;28;20565;-78
2022/08/28 03:04:51;;;;;;;4.28;2.78;;;;;;;;;;4946292;28;20066;-79
2022/08/28 03:07:18;;;;;;;3.40;2.70;;;;;;;;;;4948726;28;20027;-79
2022/08/28 03:09:44;;;;;;;4.65;3.03;;;;;;;;;;4944111;28;20038;-78
2022/08/28 03:12:12;;;;;;;4.05;2.67;;;;;;;;;;4941136;28;20027;-78
2022/08/28 03:14:38;;;;;;;3.67;3.13;;;;;;;;;;4948448;28;20047;-78
2022/08/28 03:17:06;;;;;;;5.45;3.08;;;;;;;;;;4946388;28;20406;-78
2022/08/28 03:19:32;;;;;;;4.47;3.00;;;;;;;;;;4943011;28;20019;-78
2022/08/28 03:21:58;;;;;;;4.32;3.05;;;;;;;;;;4944656;28;20030;-78
2022/08/28 03:24:24;;;;;;;4.38;2.90;;;;;;;;;;4949150;28;20042;-77
2022/08/28 03:26:50;;;;;;;4.65;3.30;;;;;;;;;;4962971;28;20086;-78
2022/08/28 03:29:16;;;;;;;5.07;4.18;;;;;;;;;;4940819;28;20047;-78
2022/08/28 03:31:42;;;;;;;6.47;4.28;;;;;;;;;;4947890;28;20097;-78
2022/08/28 03:34:09;;;;;;;6.90;4.47;;;;;;;;;;4947570;28;20027;-78
2022/08/28 03:36:35;;;;;;;10.07;5.70;;;;;;;;;;4948211;28;20059;-78
2022/08/28 03:39:04;;;;;;;8.07;4.97;;;;;;;;;;4945009;28;20125;-78
2022/08/28 03:41:31;;;;;;;6.05;4.60;;;;;;;;;;4950261;28;20063;-78
2022/08/28 03:43:58;;;;;;;5.97;4.32;;;;;;;;;;4944579;28;20028;-78
2022/08/28 03:46:25;;;;;;;8.13;4.45;;;;;;;;;;4941180;28;20113;-78
2022/08/28 03:48:51;;;;;;;4.93;3.47;;;;;;;;;;4947583;28;20023;-79
2022/08/28 03:51:21;;;;;;;6.15;3.00;;;;;;;;;;4943145;28;20508;-77
2022/08/28 03:53:47;;;;;;;5.20;3.15;;;;;;;;;;4960006;28;20035;-78
2022/08/28 03:56:20;;;;;;;5.40;3.08;;;;;;;;;;4944228;28;20363;-79
2022/08/28 03:58:46;;;;;;;5.70;3.38;;;;;;;;;;4947726;28;20027;-79
2022/08/28 04:01:12;;;;;;;8.35;3.65;;;;;;;;;;4944827;28;20844;-78
2022/08/28 04:03:38;;;;;;;3.85;2.67;;;;;;;;;;4949238;28;20062;-78
2022/08/28 04:06:05;;;;;;;4.47;3.03;;;;;;;;;;4955517;28;20037;-79
2022/08/28 04:08:31;;;;;;;3.97;3.00;;;;;;;;;;4944272;28;20835;-78
2022/08/28 04:10:59;;;;;;;5.13;2.80;;;;;;;;;;4941008;28;20032;-78
2022/08/28 04:13:25;;;;;;;6.05;2.90;;;;;;;;;;4957386;28;20026;-78
2022/08/28 04:16:12;;;;;;;3.17;2.78;;;;;;;;;;4971025;28;20119;-78
2022/08/28 04:18:39;;;;;;;3.28;2.50;;;;;;;;;;4961949;28;20031;-78
2022/08/28 04:21:09;;;;;;;5.97;2.70;;;;;;;;;;4944682;28;20138;-78
2022/08/28 04:23:37;;;;;;;3.80;2.90;;;;;;;;;;4947534;28;21438;-78
2022/08/28 04:26:10;;;;;;;4.18;2.92;;;;;;;;;;4945828;28;20023;-78
2022/08/28 04:28:37;;;;;;;5.18;3.20;;;;;;;;;;4973172;28;20126;-78
2022/08/28 04:31:03;;;;;;;3.92;2.60;;;;;;;;;;4963410;28;20051;-78
2022/08/28 04:33:31;;;;;;;5.32;3.47;;;;;;;;;;4949473;28;20409;-79
2022/08/28 04:35:57;;;;;;;7.82;4.35;;;;;;;;;;4948174;28;20143;-79
2022/08/28 04:38:23;;;;;;;5.00;3.20;;;;;;;;;;4969451;28;20381;-78
2022/08/28 04:40:49;;;;;;;4.45;3.75;;;;;;;;;;4978602;28;20038;-79
2022/08/28 04:43:16;;;;;;;7.25;3.05;;;;;;;;;;4946805;28;20027;-78
2022/08/28 04:45:43;;;;;;;3.70;3.10;;;;;;;;;;4961692;28;20089;-78
2022/08/28 04:48:11;;;;;;;4.35;3.20;;;;;;;;;;4939283;28;20084;-78
2022/08/28 04:50:47;;;;;;;4.95;3.63;;;;;;;;;;4940083;28;20032;-78
2022/08/28 04:53:14;;;;;;;3.90;2.88;;;;;;;;;;4942669;28;20031;-79
2022/08/28 04:55:44;;;;;;;4.45;3.30;;;;;;;;;;4947232;28;20028;-78
2022/08/28 04:58:10;;;;;;;5.80;3.25;;;;;;;;;;4946742;28;20110;-78
2022/08/28 05:00:37;;;;;;;4.88;3.50;;;;;;;;;;4977602;28;20031;-78
2022/08/28 05:03:07;;;;;;;4.65;2.85;;;;;;;;;;4958070;28;20038;-78
2022/08/28 05:05:33;;;;;;;7.85;3.85;;;;;;;;;;4948984;28;20050;-78
2022/08/28 05:07:59;;;;;;;3.85;3.20;;;;;;;;;;4945968;28;20023;-78
2022/08/28 05:10:26;;;;;;;6.35;3.33;;;;;;;;;;4948434;28;20489;-78
2022/08/28 05:12:52;;;;;;;7.95;3.53;;;;;;;;;;4947102;28;20035;-78
2022/08/28 05:15:18;;;;;;;4.03;3.10;;;;;;;;;;4950123;28;20534;-79
2022/08/28 05:17:46;;;;;;;9.70;4.00;;;;;;;;;;4946665;28;20039;-78
2022/08/28 05:20:12;;;;;;;3.83;3.03;;;;;;;;;;4946948;28;20239;-78
2022/08/28 05:22:38;;;;;;;3.97;2.75;;;;;;;;;;4949767;28;20114;-78
2022/08/28 05:25:04;;;;;;;3.25;2.95;;;;;;;;;;4944164;28;20027;-78
2022/08/28 05:27:30;;;;;;;4.40;3.25;;;;;;;;;;4945244;28;20103;-78
2022/08/28 05:29:56;;;;;;;4.25;3.33;;;;;;;;;;4943350;28;20020;-78
2022/08/28 05:32:23;;;;;;;4.55;3.20;;;;;;;;;;4951017;28;20035;-78
2022/08/28 05:34:49;;;;;;;4.65;2.92;;;;;;;;;;4949690;28;20032;-79
2022/08/28 05:37:15;;;;;;;3.95;3.08;;;;;;;;;;4962870;28;20447;-78
2022/08/28 05:39:41;;;;;;;6.20;3.30;;;;;;;;;;4947124;28;20031;-78
2022/08/28 05:42:07;;;;;;;4.95;3.17;;;;;;;;;;4979184;28;20043;-78
2022/08/28 05:44:33;;;;;;;5.85;4.05;;;;;;;;;;4939406;28;20534;-78
2022/08/28 05:46:59;;;;;;;4.97;2.92;;;;;;;;;;4942210;28;20035;-78
2022/08/28 05:49:26;;;;;;;6.22;3.40;;;;;;;;;;4947812;28;20491;-78
2022/08/28 05:51:53;;;;;;;5.43;3.20;;;;;;;;;;4946971;28;20596;-78
2022/08/28 05:54:19;;;;;;;4.88;2.95;;;;;;;;;;4948599;28;20066;-78
2022/08/28 05:56:45;;;;;;;3.80;2.90;;;;;;;;;;4945139;28;20032;-79
2022/08/28 05:59:12;;;;;;;5.85;3.05;;;;;;;;;;4945990;28;20046;-79
2022/08/28 06:01:40;;;;;;;4.03;2.97;;;;;;;;;;4941131;28;20493;-78
2022/08/28 06:04:14;;;;;;;5.80;2.90;;;;;;;;;;4942005;28;20035;-78
2022/08/28 06:06:41;;;;;;;3.38;2.70;;;;;;;;;;4944944;28;20098;-78
2022/08/28 06:09:15;;;;;;;4.13;3.17;;;;;;;;;;4952956;28;20529;-79
2022/08/28 06:11:43;;;;;;;4.43;2.90;;;;;;;;;;4953825;28;20390;-78
2022/08/28 06:14:10;;;;;;;4.22;2.80;;;;;;;;;;4949808;28;20537;-79
2022/08/28 06:16:38;;;;;;;3.90;2.90;;;;;;;;;;4954795;28;20042;-78
2022/08/28 06:19:04;;;;;;;4.13;2.65;;;;;;;;;;4946533;28;20038;-79
2022/08/28 06:21:32;;;;;;;3.92;3.00;;;;;;;;;;4950874;28;20038;-78
2022/08/28 06:23:58;;;;;;;4.20;2.58;;;;;;;;;;4951817;28;20033;-78
2022/08/28 06:26:25;;;;;;;4.97;2.95;;;;;;;;;;4948473;28;20082;-79
2022/08/28 06:28:52;;;;;;;3.65;3.30;;;;;;;;;;4946222;28;20034;-78
2022/08/28 06:31:18;;;;;;;4.50;2.95;;;;;;;;;;4949798;28;20038;-78
2022/08/28 06:33:45;;;;;;;4.15;2.95;;;;;;;;;;4944805;28;20039;-79
2022/08/28 06:36:11;;;;;;;3.88;2.75;;;;;;;;;;4983158;28;20034;-79
2022/08/28 06:38:37;;;;;;;6.05;2.63;;;;;;;;;;4947949;28;20280;-78
2022/08/28 06:41:08;;;;;;;3.30;2.90;;;;;;;;;;4951941;28;20062;-78
2022/08/28 06:43:34;;;;;;;7.35;3.22;;;;;;;;;;4943149;28;20098;-78
2022/08/28 06:46:00;;;;;;;9.23;3.58;;;;;;;;;;4950211;28;20019;-79
2022/08/28 06:48:27;;;;;;;3.90;2.80;;;;;;;;;;4940612;28;20032;-78
2022/08/28 06:50:54;;;;;;;3.70;2.75;;;;;;;;;;4949235;28;20093;-79
2022/08/28 06:53:24;;;;;;;3.63;3.20;;;;;;;;;;4981055;28;20370;-78
2022/08/28 06:55:57;;;;;;;5.28;3.17;;;;;;;;;;4944699;28;20062;-78
2022/08/28 06:58:24;;;;;;;3.47;2.70;;;;;;;;;;4947330;28;20027;-79
2022/08/28 07:00:50;;;;;;;7.07;3.53;;;;;;;;;;4955364;28;20039;-78
2022/08/28 07:03:16;;;;;;;5.30;3.10;;;;;;;;;;4977745;28;20031;-79
2022/08/28 07:05:42;;;;;;;4.53;3.25;;;;;;;;;;4959429;28;20043;-80
2022/08/28 07:08:08;;;;;;;5.30;3.20;;;;;;;;;;4971841;28;20390;-79
2022/08/28 07:10:34;;;;;;;10.30;3.40;;;;;;;;;;4951676;28;20042;-79
2022/08/28 07:13:02;;;;;;;5.15;3.03;;;;;;;;;;4955487;28;20027;-80
2022/08/28 07:15:28;;;;;;;4.22;3.28;;;;;;;;;;4946532;28;20039;-80
2022/08/28 07:17:54;;;;;;;4.00;3.03;;;;;;;;;;4979355;28;20055;-81
2022/08/28 07:20:20;;;;;;;3.72;2.30;;;;;;;;;;4949234;28;20490;-79
2022/08/28 07:22:47;;;;;;;3.78;3.05;;;;;;;;;;4954918;28;20035;-80
2022/08/28 07:25:13;;;;;;;4.65;2.80;;;;;;;;;;4955171;28;20082;-80
2022/08/28 07:27:39;;;;;;;5.15;2.70;;;;;;;;;;4956887;28;20023;-79
2022/08/28 07:30:07;;;;;;;3.42;2.42;;;;;;;;;;4954950;28;20063;-79
2022/08/28 07:32:33;;;;;;;4.20;2.88;;;;;;;;;;4971461;28;20032;-80
2022/08/28 07:34:59;;;;;;;5.78;2.80;;;;;;;;;;4950333;28;20031;-81
2022/08/28 07:37:26;;;;;;;5.90;2.47;;;;;;;;;;4952914;28;20047;-80
2022/08/28 07:39:52;;;;;;;5.50;2.85;;;;;;;;;;4951859;28;20033;-79
2022/08/28 07:45:03;;;;;;;2.70;2.43;;;;;;;;;;4953873;28;20453;-80
2022/08/28 07:47:30;;;;;;;3.85;2.63;;;;;;;;;;4989221;28;20526;-79
2022/08/28 07:49:59;;;;;;;6.40;3.10;;;;;;;;;;4952598;28;20573;-78
2022/08/28 07:52:26;;;;;;;8.57;2.72;;;;;;;;;;4950687;28;20129;-78
2022/08/28 07:54:52;;;;;;;3.20;2.75;;;;;;;;;;4951692;28;20023;-79
2022/08/28 07:57:19;;;;;;;5.60;2.60;;;;;;;;;;4947546;28;20482;-80
2022/08/28 07:59:46;;;;;;;6.10;3.08;;;;;;;;;;4952351;28;20045;-79
2022/08/28 08:02:12;;;;;;;6.60;2.50;;;;;;;;;;4946724;28;20059;-80
2022/08/28 08:04:39;;;;;;;4.00;2.47;;;;;;;;;;4947780;28;20057;-78
2022/08/28 08:07:05;;;;;;;4.55;2.70;;;;;;;;;;4950937;28;20027;-80
2022/08/28 08:09:35;;;;;;;3.85;2.60;;;;;;;;;;4946704;28;20032;-80
2022/08/28 08:12:01;;;;;;;4.68;2.65;;;;;;;;;;4948537;28;20023;-77
2022/08/28 08:14:27;;;;;;;4.93;2.80;;;;;;;;;;4944854;28;20698;-79
2022/08/28 08:16:53;;;;;;;4.18;2.30;;;;;;;;;;4951843;28;20033;-79
2022/08/28 08:19:20;;;;;;;3.78;2.65;;;;;;;;;;4948373;28;20035;-79
2022/08/28 08:21:51;;;;;;;3.00;2.33;;;;;;;;;;4949712;28;20042;-80
2022/08/28 08:24:19;;;;;;;2.53;2.05;;;;;;;;;;4953825;28;20546;-79
2022/08/28 08:26:46;;;;;;;3.55;2.15;;;;;;;;;;4955402;28;20059;-79
2022/08/28 08:29:13;;;;;;;4.43;2.42;;;;;;;;;;4960140;28;20082;-79
2022/08/28 08:31:39;;;;;;;4.28;2.20;;;;;;;;;;4951918;28;20062;-79
2022/08/28 08:34:06;;;;;;;2.40;2.10;;;;;;;;;;4956698;28;20222;-79
2022/08/28 08:36:33;;;;;;;3.50;2.33;;;;;;;;;;4957162;28;20035;-80
2022/08/28 08:39:00;;;;;;;2.40;2.20;;;;;;;;;;4958568;28;20027;-80
2022/08/28 08:41:29;;;;;;;2.95;2.20;;;;;;;;;;4951001;28;20035;-79
2022/08/28 08:43:55;;;;;;;3.85;2.05;;;;;;;;;;4952107;28;20043;-79
2022/08/28 08:46:26;;;;;;;4.55;2.67;;;;;;;;;;4958846;28;20030;-79
2022/08/28 08:48:53;;;;;;;3.15;2.28;;;;;;;;;;4953206;28;20022;-79
2022/08/28 08:51:32;;;;;;;5.95;2.83;;;;;;;;;;4952443;28;20023;-79
2022/08/28 08:54:10;;;;;;;3.42;2.30;;;;;;;;;;4950480;28;20051;-78
2022/08/28 08:56:38;;;;;;;3.28;2.10;;;;;;;;;;4954304;28;20031;-79
2022/08/28 08:59:06;;;;;;;4.60;2.60;;;;;;;;;;4946975;28;20063;-79
2022/08/28 09:01:44;;;;;;;3.10;2.10;;;;;;;;;;4978428;28;20035;-79
2022/08/28 09:04:10;;;;;;;2.45;2.22;;;;;;;;;;4956063;28;20682;-79
2022/08/28 09:06:55;;;;;;;4.18;3.22;;;;;;;;;;4961517;28;20059;-78
2022/08/28 09:09:27;;;;;;;3.60;2.13;;;;;;;;;;4968388;28;20038;-78
2022/08/28 09:11:53;;;;;;;2.50;2.15;;;;;;;;;;4956753;29;20054;-79
2022/08/28 09:14:19;;;;;;;2.67;2.40;;;;;;;;;;4957938;28;20102;-79
2022/08/28 09:16:46;;;;;;;3.75;2.40;;;;;;;;;;4956318;28;20041;-80
2022/08/28 09:19:16;;;;;;;4.07;2.42;;;;;;;;;;4957162;28;20360;-79
2022/08/28 09:21:43;;;;;;;4.05;2.20;;;;;;;;;;4953285;28;20158;-80
2022/08/28 09:24:15;;;;;;;5.30;2.38;;;;;;;;;;4951072;28;20587;-79
2022/08/28 09:26:41;;;;;;;2.95;2.38;;;;;;;;;;4955541;28;20062;-80
2022/08/28 09:29:16;;;;;;;3.65;2.30;;;;;;;;;;4956010;28;20082;-79
2022/08/28 09:31:43;;;;;;;3.60;2.17;;;;;;;;;;4955431;28;20117;-81
2022/08/28 09:34:23;;;;;;;4.43;2.05;;;;;;;;;;4955960;28;20482;-79
2022/08/28 09:36:50;;;;;;;2.88;2.10;;;;;;;;;;4950420;28;20041;-79
2022/08/28 09:39:18;;;;;;;3.70;2.00;;;;;;;;;;4946742;28;20043;-80
2022/08/28 09:44:29;;;;;;;2.40;2.03;;;;;;;;;;4955437;28;20050;-82
2022/08/28 09:46:56;;;;;;;7.22;1.98;;;;;;;;;;4957387;28;20032;-79
2022/08/28 09:49:24;;;;;;;5.05;2.10;;;;;;;;;;4949050;28;20471;-80
2022/08/28 09:51:50;;;;;;;3.53;2.05;;;;;;;;;;4958506;28;20019;-80
2022/08/28 09:54:22;;;;;;;2.92;2.10;;;;;;;;;;4955812;28;20066;-78
2022/08/28 09:56:49;;;;;;;3.88;2.10;;;;;;;;;;4958645;28;20055;-79
2022/08/28 09:59:16;;;;;;;2.30;2.10;;;;;;;;;;4954484;28;20039;-79
2022/08/28 10:01:43;;;;;;;3.50;2.30;;;;;;;;;;4952103;28;20035;-80
2022/08/28 10:04:13;;;;;;;3.72;2.30;;;;;;;;;;4950953;28;20031;-80
2022/08/28 10:06:40;;;;;;;4.43;2.20;;;;;;;;;;4950771;28;20027;-79
2022/08/28 10:09:16;;;;;;;2.92;1.95;;;;;;;;;;4950540;28;20020;-80
2022/08/28 10:12:00;;;;;;;2.83;2.00;;;;;;;;;;4956477;28;20023;-79
2022/08/28 10:14:45;;;;;;;2.95;2.13;;;;;;;;;;4953360;28;20059;-79
2022/08/28 10:17:11;;;;;;;3.83;2.15;;;;;;;;;;4953287;28;20470;-80
2022/08/28 10:19:52;;;;;;;3.63;2.05;;;;;;;;;;4955621;28;20031;-79
2022/08/28 10:22:18;;;;;;;3.47;2.30;;;;;;;;;;4955417;28;20486;-80
2022/08/28 10:24:52;;;;;;;3.13;2.00;;;;;;;;;;4955856;28;20039;-82
2022/08/28 10:27:31;;;;;;;2.90;1.90;;;;;;;;;;4956950;28;20023;-79
2022/08/28 10:30:06;;;;;;;4.57;2.03;;;;;;;;;;4953542;28;20554;-78
2022/08/28 10:32:47;;;;;;;2.65;2.08;;;;;;;;;;4949688;28;20047;-80
2022/08/28 10:35:15;;;;;;;2.47;2.22;;;;;;;;;;4953384;28;20053;-78
2022/08/28 10:38:00;;;;;;;4.35;2.15;;;;;;;;;;4954001;28;20038;-79
2022/08/28 10:40:40;;;;;;;4.32;2.00;;;;;;;;;;4951601;28;20403;-79
2022/08/28 10:43:10;;;;;;;3.15;1.90;;;;;;;;;;4954438;28;20049;-77
2022/08/28 10:45:45;;;;;;;2.40;1.88;;;;;;;;;;4955549;28;20460;-79
2022/08/28 10:48:23;;;;;;;2.75;1.90;;;;;;;;;;4953008;28;20091;-79
2022/08/28 10:50:54;;;;;;;4.20;2.08;;;;;;;;;;4948284;28;20032;-78
2022/08/28 10:53:32;;;;;;;3.17;1.98;;;;;;;;;;4952227;28;20186;-81
2022/08/28 10:56:02;;;;;;;2.97;2.08;;;;;;;;;;4946484;28;20045;-78
2022/08/28 10:58:30;;;;;;;2.55;2.00;;;;;;;;;;4966515;28;20416;-79
2022/08/28 11:01:01;;;;;;;3.58;2.15;;;;;;;;;;4967444;28;20027;-80
2022/08/28 11:03:29;;;;;;;2.13;1.75;;;;;;;;;;4946824;28;20027;-79
2022/08/28 11:06:02;;;;;;;2.47;1.90;;;;;;;;;;4948152;28;20066;-78
2022/08/28 11:08:33;;;;;;;2.20;1.85;;;;;;;;;;4941597;28;20026;-77
2022/08/28 11:11:00;;;;;;;3.92;2.10;;;;;;;;;;4941080;28;20375;-77
2022/08/28 11:13:38;;;;;;;2.30;1.90;;;;;;;;;;4944113;28;20071;-77
2022/08/28 11:16:31;;;;;;;2.30;1.95;;;;;;;;;;4943557;28;20530;-77
2022/08/28 11:18:57;;;;;;;1.90;1.77;;;;;;;;;;4939383;28;20114;-76
2022/08/28 11:21:25;;;;;;;6.00;1.95;;;;;;;;;;4942233;28;20031;-77
2022/08/28 11:24:03;;;;;;;2.45;2.03;;;;;;;;;;4944328;28;20033;-78
2022/08/28 11:26:37;;;;;;;3.08;1.90;;;;;;;;;;4945253;28;20109;-77
2022/08/28 11:29:03;;;;;;;2.92;1.70;;;;;;;;;;4947095;28;20027;-76
2022/08/28 11:31:32;;;;;;;5.25;2.03;;;;;;;;;;4948554;28;20505;-76
2022/08/28 11:33:59;;;;;;;1.70;1.60;;;;;;;;;;4948754;28;20031;-77
2022/08/28 11:36:28;;;;;;;2.80;1.98;;;;;;;;;;4946414;28;20514;-76
2022/08/28 11:38:54;;;;;;;2.38;1.77;;;;;;;;;;4945248;28;20450;-78
2022/08/28 11:41:23;;;;;;;2.42;1.80;;;;;;;;;;4943669;28;20514;-78
2022/08/28 11:44:13;;;;;;;2.50;1.80;;;;;;;;;;4945376;28;20030;-80
2022/08/28 11:46:43;;;;;;;2.80;2.45;;;;;;;;;;4945607;28;20054;-78
2022/08/28 11:49:28;;;;;;;3.17;1.85;;;;;;;;;;4945028;28;20027;-77
2022/08/28 11:51:58;;;;;;;3.47;1.92;;;;;;;;;;4952327;28;20106;-77
2022/08/28 11:54:32;;;;;;;2.40;2.00;;;;;;;;;;4946044;28;20059;-76
2022/08/28 11:57:10;;;;;;;2.53;1.83;;;;;;;;;;4946899;28;20027;-77
2022/08/28 11:59:51;;;;;;;3.70;1.70;;;;;;;;;;4948025;28;20024;-77
2022/08/28 12:02:36;;;;;;;1.70;1.60;;;;;;;;;;4945618;28;20038;-77
2022/08/28 12:05:06;;;;;;;3.03;1.80;;;;;;;;;;4945970;28;20038;-78
2022/08/28 12:07:35;;;;;;;2.13;1.92;;;;;;;;;;4942892;28;20058;-77
2022/08/28 12:10:01;;;;;;;3.67;2.10;;;;;;;;;;4946694;28;20024;-78
2022/08/28 12:12:51;;;;;;;3.80;2.20;;;;;;;;;;4943678;28;20023;-78
2022/08/28 12:15:29;;;;;;;3.75;2.30;;;;;;;;;;4939557;28;20074;-77
2022/08/28 12:17:59;;;;;;;3.10;1.90;;;;;;;;;;4943696;28;20042;-76
2022/08/28 12:20:29;;;;;;;2.35;1.90;;;;;;;;;;4942244;28;20027;-77
2022/08/28 12:23:00;;;;;;;3.67;2.13;;;;;;;;;;4950066;28;20015;-78
2022/08/28 12:25:29;;;;;;;2.72;2.22;;;;;;;;;;4954772;28;20378;-77
2022/08/28 12:27:56;;;;;;;2.20;2.00;;;;;;;;;;4961075;28;20027;-79
2022/08/28 12:30:29;;;;;;;2.38;2.08;;;;;;;;;;4946615;28;20142;-79
2022/08/28 12:32:59;;;;;;;3.70;2.67;;;;;;;;;;4943771;28;20126;-78
2022/08/28 12:35:26;;;;;;;4.05;2.00;;;;;;;;;;4945538;28;20090;-78
2022/08/28 12:37:52;;;;;;;4.53;2.78;;;;;;;;;;4944315;28;20114;-79
2022/08/28 12:40:23;;;;;;;3.58;2.03;;;;;;;;;;4961425;28;20023;-79
2022/08/28 12:42:49;;;;;;;3.80;1.92;;;;;;;;;;4944334;28;20061;-78
2022/08/28 12:45:20;;;;;;;2.28;1.90;;;;;;;;;;4944051;28;20502;-79
2022/08/28 12:47:46;;;;;;;4.30;2.03;;;;;;;;;;4942865;28;20510;-79
2022/08/28 12:50:20;;;;;;;2.35;1.92;;;;;;;;;;4943669;28;20019;-78
2022/08/28 12:52:48;;;;;;;2.95;1.80;;;;;;;;;;4957536;28;20351;-80
2022/08/28 12:55:14;;;;;;;3.60;2.30;;;;;;;;;;4978366;28;20110;-78
2022/08/28 12:57:44;;;;;;;2.63;1.67;;;;;;;;;;4944196;28;20031;-81
2022/08/28 13:00:11;;;;;;;3.10;1.80;;;;;;;;;;4946428;28;20035;-80
2022/08/28 13:02:37;;;;;;;5.35;2.67;;;;;;;;;;4958515;28;20028;-79
2022/08/28 13:05:08;;;;;;;1.92;1.73;;;;;;;;;;4959351;28;20062;-79
2022/08/28 13:07:39;;;;;;;2.17;1.70;;;;;;;;;;4943238;28;20039;-77
2022/08/28 13:10:15;;;;;;;2.28;1.80;;;;;;;;;;4945153;28;20081;-81
2022/08/28 13:12:41;;;;;;;2.45;1.70;;;;;;;;;;4939358;28;20031;-77
2022/08/28 13:15:08;;;;;;;2.38;1.85;;;;;;;;;;4941611;28;20529;-79
2022/08/28 13:17:49;;;;;;;3.95;2.15;;;;;;;;;;4943483;28;20137;-78
2022/08/28 13:20:28;;;;;;;2.63;1.95;;;;;;;;;;4945453;28;20027;-77
2022/08/28 13:22:59;;;;;;;2.47;1.95;;;;;;;;;;4946484;28;20027;-76
2022/08/28 13:25:30;;;;;;;3.60;2.10;;;;;;;;;;4964003;28;20579;-76
2022/08/28 13:27:58;;;;;;;3.05;2.00;;;;;;;;;;4946067;28;20375;-77
2022/08/28 13:30:34;;;;;;;5.82;2.08;;;;;;;;;;4947840;28;20042;-76
2022/08/28 13:33:20;;;;;;;2.45;1.90;;;;;;;;;;4945290;28;20039;-77
2022/08/28 13:35:53;;;;;;;2.50;2.00;;;;;;;;;;4943199;28;20035;-77
2022/08/28 13:38:21;;;;;;;2.55;1.90;;;;;;;;;;4944461;28;20530;-78
2022/08/28 13:40:57;;;;;;;2.70;1.88;;;;;;;;;;4942718;28;20548;-78
2022/08/28 13:43:25;;;;;;;2.75;2.00;;;;;;;;;;4944689;28;20035;-78
2022/08/28 13:45:51;;;;;;;3.00;2.10;;;;;;;;;;4940486;28;20031;-79
2022/08/28 13:48:19;;;;;;;3.75;1.88;;;;;;;;;;4941343;28;20478;-78
2022/08/28 13:50:47;;;;;;;2.92;2.00;;;;;;;;;;4943396;28;20028;-78
2022/08/28 13:53:14;;;;;;;2.95;1.70;;;;;;;;;;4947515;28;20026;-78
2022/08/28 13:55:40;;;;;;;3.47;1.90;;;;;;;;;;4945129;28;20043;-78
2022/08/28 13:58:07;;;;;;;2.20;1.90;;;;;;;;;;4943624;28;20050;-78
2022/08/28 14:00:35;;;;;;;3.10;2.40;;;;;;;;;;4942128;28;20043;-77
2022/08/28 14:05:46;;;;;;;2.67;1.95;;;;;;;;;;4941607;28;20054;-77
2022/08/28 14:08:13;;;;;;;3.55;2.10;;;;;;;;;;4946147;28;20110;-78
2022/08/28 14:10:39;;;;;;;3.38;1.80;;;;;;;;;;4942838;28;20036;-77
2022/08/28 14:13:06;;;;;;;3.25;1.98;;;;;;;;;;4960290;28;20119;-78
2022/08/28 14:15:32;;;;;;;2.53;1.90;;;;;;;;;;4935388;28;20063;-77
2022/08/28 14:18:01;;;;;;;1.90;1.70;;;;;;;;;;4942169;28;20067;-79
2022/08/28 14:20:28;;;;;;;3.03;2.00;;;;;;;;;;4957883;28;20023;-79
2022/08/28 14:22:54;;;;;;;4.43;2.03;;;;;;;;;;4941701;28;20027;-78
2022/08/28 14:25:20;;;;;;;2.05;1.77;;;;;;;;;;4942287;28;20431;-77
2022/08/28 14:27:47;;;;;;;3.95;1.80;;;;;;;;;;4942455;28;20028;-77
2022/08/28 14:30:13;;;;;;;2.88;1.92;;;;;;;;;;4943220;28;20033;-78
2022/08/28 14:32:39;;;;;;;3.08;1.70;;;;;;;;;;4948778;28;20313;-79
2022/08/28 14:35:06;;;;;;;2.17;1.70;;;;;;;;;;4946167;28;20039;-77
2022/08/28 14:37:32;;;;;;;2.00;1.80;;;;;;;;;;4946148;28;20034;-79
2022/08/28 14:39:58;;;;;;;2.40;1.85;;;;;;;;;;4945865;28;20118;-79
2022/08/28 14:42:25;;;;;;;2.35;1.80;;;;;;;;;;4944833;28;20438;-79
2022/08/28 14:44:52;;;;;;;1.92;1.70;;;;;;;;;;4944985;28;20027;-78
2022/08/28 14:47:18;;;;;;;2.15;1.80;;;;;;;;;;4946094;28;20028;-77
2022/08/28 14:49:44;;;;;;;2.15;1.80;;;;;;;;;;4944000;28;20031;-78
2022/08/28 14:52:10;;;;;;;3.55;1.80;;;;;;;;;;4944108;28;20114;-79
2022/08/28 14:54:39;;;;;;;2.28;1.80;;;;;;;;;;4945852;28;20023;-79
2022/08/28 14:57:05;;;;;;;3.13;1.77;;;;;;;;;;4942086;28;20035;-78
2022/08/28 14:59:32;;;;;;;2.00;1.70;;;;;;;;;;4947303;28;20042;-80
2022/08/28 15:02:00;;;;;;;2.33;1.92;;;;;;;;;;4946895;28;20059;-78